Time;durP1;ratioP1;P1;durP2;ratioP2;P2;SDS_P1;SDS_P2;PMS_P1;PMS_P2;Temp;Humidity;BMP_temperature;BMP_pressure;BME280_temperature;BME280_humidity;BME280_pressure;Samples;Min_cycle;Max_cycle;Signal;HPM_P1;HPM_P2
2022/05/06 00:02:05;;;;;;;6.53;4.93;;;10.20;99.90;10.40;97084.00;;;;5048215;28;20236;-70
2022/05/06 00:04:33;;;;;;;7.37;6.47;;;10.20;99.90;10.40;97088.00;;;;5048205;28;20295;-70
2022/05/06 00:07:03;;;;;;;6.57;5.67;;;10.10;99.90;10.40;97086.00;;;;5048223;28;20193;-69
2022/05/06 00:09:32;;;;;;;6.63;6.03;;;10.10;99.90;10.70;97083.00;;;;5048197;28;20682;-70
2022/05/06 00:12:00;;;;;;;6.43;5.80;;;10.10;99.90;10.70;97075.00;;;;5048593;28;20662;-70
2022/05/06 00:14:29;;;;;;;7.40;6.13;;;10.10;99.90;10.80;97089.00;;;;5048945;28;20216;-70
2022/05/06 00:16:59;;;;;;;6.83;6.13;;;10.20;99.90;10.70;97090.00;;;;5048413;28;20274;-70
2022/05/06 00:19:27;;;;;;;6.43;5.83;;;10.10;99.90;10.70;97082.00;;;;5048181;28;20215;-70
2022/05/06 00:21:56;;;;;;;6.43;5.83;;;10.20;99.90;10.90;97083.00;;;;5048244;28;20236;-70
2022/05/06 00:24:24;;;;;;;7.00;6.30;;;10.20;99.90;11.00;97081.00;;;;5048544;28;20220;-70
2022/05/06 00:26:53;;;;;;;6.57;5.60;;;10.20;99.90;10.80;97073.00;;;;5047103;28;20574;-70
2022/05/06 00:29:22;;;;;;;7.33;6.27;;;10.20;99.90;10.80;97080.00;;;;5048370;28;20350;-70
2022/05/06 00:31:51;;;;;;;6.20;5.70;;;10.20;99.90;10.70;97080.00;;;;5052901;28;20242;-71
2022/05/06 00:34:21;;;;;;;9.20;8.37;;;10.20;99.90;10.30;97073.00;;;;5051430;28;20217;-69
2022/05/06 00:36:50;;;;;;;6.63;6.03;;;10.10;99.90;10.40;97079.00;;;;5049483;28;20200;-70
2022/05/06 00:39:18;;;;;;;6.73;5.50;;;10.00;99.90;10.30;97074.00;;;;5049317;28;20307;-70
2022/05/06 00:41:47;;;;;;;6.00;5.40;;;10.00;99.90;10.20;97077.00;;;;5049523;28;20223;-70
2022/05/06 00:44:16;;;;;;;5.97;5.47;;;9.90;99.90;10.20;97072.00;;;;5048762;28;20239;-70
2022/05/06 00:46:45;;;;;;;6.63;6.03;;;9.90;99.90;10.40;97073.00;;;;5049226;28;20279;-70
2022/05/06 00:49:14;;;;;;;7.73;5.70;;;9.90;99.90;10.10;97075.00;;;;5049168;28;20204;-70
2022/05/06 00:51:45;;;;;;;5.60;5.10;;;9.80;99.90;10.20;97075.00;;;;5049557;28;20214;-70
2022/05/06 00:54:15;;;;;;;7.20;5.87;;;9.80;99.90;10.30;97083.00;;;;5049399;28;20300;-69
2022/05/06 00:56:46;;;;;;;7.23;6.43;;;9.90;99.90;10.40;97081.00;;;;5048650;28;20205;-70
2022/05/06 00:59:15;;;;;;;7.30;6.60;;;9.90;99.90;10.60;97082.00;;;;5049147;28;20200;-70
2022/05/06 01:01:44;;;;;;;7.63;6.93;;;9.90;99.90;10.30;97075.00;;;;5049306;28;20231;-70
2022/05/06 01:04:14;;;;;;;8.20;6.77;;;9.90;99.90;10.20;97083.00;;;;5051529;28;20266;-70
2022/05/06 01:06:45;;;;;;;7.27;6.57;;;9.90;99.90;10.30;97082.00;;;;5052066;28;20197;-71
2022/05/06 01:09:16;;;;;;;6.20;5.60;;;9.90;99.90;10.50;97086.00;;;;5052958;28;20207;-70
2022/05/06 01:11:45;;;;;;;7.53;5.43;;;9.90;99.90;10.60;97079.00;;;;5053126;28;20231;-70
2022/05/06 01:14:32;;;;;;;6.57;5.97;;;9.90;99.90;10.40;97083.00;;;;5053202;28;20883;-70
2022/05/06 01:17:00;;;;;;;6.07;5.47;;;9.80;99.90;10.00;97081.00;;;;5051745;28;20242;-70
2022/05/06 01:19:29;;;;;;;7.73;6.90;;;9.80;99.90;10.10;97090.00;;;;5052500;28;20205;-70
2022/05/06 01:21:59;;;;;;;9.00;6.77;;;9.70;99.90;10.40;97089.00;;;;5052911;28;20335;-70
2022/05/06 01:24:28;;;;;;;8.47;6.37;;;9.70;99.90;10.30;97087.00;;;;5052575;28;20331;-71
2022/05/06 01:27:04;;;;;;;7.43;6.73;;;9.70;99.90;10.70;97075.00;;;;5051745;28;20197;-71
2022/05/06 01:29:33;;;;;;;7.67;6.87;;;9.80;99.90;10.80;97085.00;;;;5052801;28;20213;-71
2022/05/06 01:32:03;;;;;;;7.03;6.43;;;9.90;99.90;11.00;97084.00;;;;5056434;28;20196;-71
2022/05/06 01:34:32;;;;;;;7.37;6.43;;;10.00;99.90;10.80;97072.00;;;;5052221;28;20216;-71
2022/05/06 01:37:05;;;;;;;7.13;6.43;;;10.00;99.90;10.80;97085.00;;;;5052162;28;20204;-71
2022/05/06 01:39:37;;;;;;;7.07;6.37;;;10.10;99.90;10.60;97099.00;;;;5052447;28;20205;-70
2022/05/06 01:42:12;;;;;;;6.57;5.67;;;10.00;99.90;10.60;97087.00;;;;5052189;28;20216;-71
2022/05/06 01:44:45;;;;;;;6.80;6.10;;;10.00;99.90;10.50;97082.00;;;;5051833;28;20212;-70
2022/05/06 01:47:21;;;;;;;6.93;6.27;;;9.90;99.90;10.40;97078.00;;;;5052146;28;20204;-72
2022/05/06 01:49:51;;;;;;;7.33;6.37;;;9.90;99.90;10.40;97084.00;;;;5052229;28;20220;-71
2022/05/06 01:52:22;;;;;;;6.43;5.17;;;9.80;99.90;10.40;97080.00;;;;5052420;28;20255;-70
2022/05/06 01:54:51;;;;;;;7.07;5.83;;;9.80;99.90;10.40;97077.00;;;;5052301;28;20247;-71
2022/05/06 01:57:20;;;;;;;9.97;6.63;;;9.70;99.90;10.30;97082.00;;;;5044636;28;20211;-71
2022/05/06 01:59:48;;;;;;;5.67;5.17;;;9.70;99.90;10.20;97079.00;;;;5044117;28;20197;-71
2022/05/06 02:02:17;;;;;;;6.33;5.73;;;9.70;99.90;10.20;97078.00;;;;5051275;28;20220;-71
2022/05/06 02:07:33;;;;;;;6.80;6.00;;;9.70;99.90;10.40;97078.00;;;;5048900;28;20318;-70
2022/05/06 02:10:01;;;;;;;7.60;6.77;;;9.70;99.90;10.40;97074.00;;;;5051824;28;20193;-71
2022/05/06 02:12:30;;;;;;;7.10;6.40;;;9.70;99.90;10.40;97078.00;;;;5051003;28;20197;-71
2022/05/06 02:14:58;;;;;;;6.77;6.13;;;9.70;99.90;10.60;97084.00;;;;5051788;28;20231;-71
2022/05/06 02:17:27;;;;;;;6.33;5.80;;;9.80;99.90;10.70;97086.00;;;;5051683;28;20242;-71
2022/05/06 02:19:56;;;;;;;7.10;6.43;;;9.80;99.90;10.40;97086.00;;;;5051661;28;20270;-71
2022/05/06 02:22:27;;;;;;;9.07;5.90;;;9.80;99.90;10.10;97083.00;;;;5051535;28;20235;-70
2022/05/06 02:24:57;;;;;;;6.60;6.00;;;9.70;99.90;10.00;97071.00;;;;5051802;28;20227;-71
2022/05/06 02:27:26;;;;;;;6.83;6.23;;;9.70;99.90;10.00;97069.00;;;;5050556;28;20208;-71
2022/05/06 02:35:28;;;;;;;6.20;5.63;;;9.60;99.90;10.20;97077.00;;;;5051404;28;20240;-71
2022/05/06 02:37:56;;;;;;;9.37;6.40;;;9.50;99.90;10.50;97075.00;;;;5050029;28;20197;-71
2022/05/06 02:40:27;;;;;;;7.40;6.53;;;9.60;99.90;10.30;97073.00;;;;5051408;28;20197;-70
2022/05/06 02:42:55;;;;;;;7.07;6.37;;;9.60;99.90;10.60;97075.00;;;;5051491;28;20216;-70
2022/05/06 02:45:24;;;;;;;6.37;5.77;;;9.70;99.90;10.40;97076.00;;;;5051088;28;20225;-70
2022/05/06 02:47:53;;;;;;;6.90;6.27;;;9.70;99.90;10.40;97071.00;;;;5050974;28;20228;-70
2022/05/06 02:50:22;;;;;;;7.57;6.77;;;9.70;99.90;10.40;97078.00;;;;5051001;28;20193;-71
2022/05/06 02:52:50;;;;;;;7.37;6.27;;;9.70;99.90;10.30;97076.00;;;;5051198;28;20204;-71
2022/05/06 02:55:19;;;;;;;7.27;6.27;;;9.70;99.90;10.50;97080.00;;;;5051012;28;20220;-71
2022/05/06 02:57:49;;;;;;;9.83;6.97;;;9.70;99.90;10.50;97066.00;;;;5050773;28;20209;-71
2022/05/06 03:00:18;;;;;;;8.03;6.73;;;9.80;99.90;10.70;97072.00;;;;5051107;28;20200;-71
2022/05/06 03:02:46;;;;;;;7.37;6.17;;;9.80;99.90;10.70;97075.00;;;;5051139;28;20287;-71
2022/05/06 03:05:15;;;;;;;7.63;6.50;;;9.90;99.90;10.60;97065.00;;;;5050348;28;20208;-71
2022/05/06 03:07:44;;;;;;;6.87;6.17;;;9.90;99.90;10.60;97068.00;;;;5050066;28;20283;-72
2022/05/06 03:10:13;;;;;;;8.03;6.10;;;9.90;99.90;10.10;97066.00;;;;5051019;28;20196;-72
2022/05/06 03:12:46;;;;;;;5.87;5.23;;;9.80;99.90;10.00;97064.00;;;;5051068;28;20686;-71
2022/05/06 03:15:17;;;;;;;6.83;6.07;;;9.70;99.90;10.20;97062.00;;;;5050723;28;20296;-71
2022/05/06 03:17:45;;;;;;;7.37;6.67;;;9.60;99.90;10.30;97067.00;;;;5050245;28;20250;-72
2022/05/06 03:20:14;;;;;;;7.03;6.43;;;9.60;99.90;10.30;97057.00;;;;5050830;28;20211;-72
2022/05/06 03:22:46;;;;;;;7.47;6.87;;;9.70;99.90;10.50;97065.00;;;;5050751;28;20196;-72
2022/05/06 03:25:16;;;;;;;8.90;7.47;;;9.70;99.90;10.60;97059.00;;;;5050579;28;20217;-71
2022/05/06 03:30:37;;;;;;;7.33;6.63;;;9.80;99.90;10.80;97067.00;;;;5050473;28;20197;-72
2022/05/06 03:33:08;;;;;;;7.27;6.37;;;9.90;99.90;10.60;97064.00;;;;5053901;28;20227;-72
2022/05/06 03:35:38;;;;;;;6.83;6.27;;;9.90;99.90;10.20;97063.00;;;;5050117;28;20220;-72
2022/05/06 03:38:08;;;;;;;7.57;6.20;;;9.80;99.90;10.20;97059.00;;;;5049985;28;20192;-72
2022/05/06 03:40:37;;;;;;;7.97;7.33;;;9.80;99.90;10.00;97061.00;;;;5049789;28;20201;-71
2022/05/06 03:43:06;;;;;;;6.23;5.63;;;9.70;99.90;10.10;97063.00;;;;5049249;28;20221;-72
2022/05/06 03:45:38;;;;;;;7.23;6.53;;;9.70;99.90;10.10;97063.00;;;;5050079;28;20251;-72
2022/05/06 03:48:07;;;;;;;7.07;6.40;;;9.60;99.90;10.00;97072.00;;;;5050110;28;20262;-71
2022/05/06 03:53:21;;;;;;;8.30;7.50;;;9.60;99.90;10.10;97074.00;;;;5050020;28;20208;-71
2022/05/06 03:55:50;;;;;;;7.10;6.40;;;9.60;99.90;10.20;97075.00;;;;5049731;28;20252;-72
2022/05/06 03:58:18;;;;;;;8.50;7.70;;;9.60;99.90;10.30;97077.00;;;;5049700;28;20201;-71
2022/05/06 04:00:48;;;;;;;6.90;6.20;;;9.60;99.90;10.60;97087.00;;;;5046297;28;20201;-72
2022/05/06 04:03:17;;;;;;;8.80;7.47;;;9.70;99.90;10.70;97078.00;;;;5044680;28;20382;-71
2022/05/06 04:05:46;;;;;;;9.27;7.03;;;9.80;99.90;10.70;97082.00;;;;5040828;28;20323;-72
2022/05/06 04:08:15;;;;;;;7.10;6.37;;;9.80;99.90;10.50;97088.00;;;;5043856;28;20207;-71
2022/05/06 04:10:44;;;;;;;6.30;5.70;;;9.80;99.90;9.90;97092.00;;;;5034127;28;20193;-71
2022/05/06 04:13:12;;;;;;;8.07;6.43;;;9.70;99.90;10.10;97100.00;;;;5049285;28;20196;-71
2022/05/06 04:15:42;;;;;;;6.77;6.17;;;9.70;99.90;10.20;97103.00;;;;5046699;28;20281;-72
2022/05/06 04:18:12;;;;;;;9.93;6.30;;;9.60;99.90;10.30;97104.00;;;;5036726;28;20225;-71
2022/05/06 04:23:30;;;;;;;10.20;8.17;;;9.70;99.90;10.70;97112.00;;;;5046756;28;20224;-72
2022/05/06 04:26:00;;;;;;;7.73;6.93;;;9.80;99.90;10.80;97123.00;;;;5046352;28;20200;-72
2022/05/06 04:28:30;;;;;;;7.87;7.17;;;9.90;99.90;10.80;97118.00;;;;5046526;28;20250;-72
2022/05/06 04:30:59;;;;;;;7.70;7.07;;;9.90;99.90;10.90;97130.00;;;;5040256;28;20613;-72
2022/05/06 04:33:30;;;;;;;6.77;6.17;;;10.00;99.90;10.90;97144.00;;;;5054119;28;20192;-72
2022/05/06 04:36:00;;;;;;;6.83;5.97;;;10.00;99.90;10.60;97145.00;;;;5047080;28;20291;-72
2022/05/06 04:38:29;;;;;;;9.83;6.27;;;10.00;99.90;10.70;97144.00;;;;5043667;28;20200;-71
2022/05/06 04:40:59;;;;;;;7.33;6.23;;;10.00;99.90;10.80;97155.00;;;;5045166;28;20192;-71
2022/05/06 04:43:29;;;;;;;11.83;5.97;;;10.10;99.90;11.00;97156.00;;;;5039584;28;20197;-71
2022/05/06 04:45:58;;;;;;;7.37;6.67;;;10.10;99.90;11.30;97165.00;;;;5045469;28;20189;-71
2022/05/06 04:48:29;;;;;;;7.70;7.00;;;10.20;99.90;11.20;97172.00;;;;5045920;28;20200;-71
2022/05/06 04:50:59;;;;;;;7.97;6.27;;;10.30;99.90;10.90;97179.00;;;;5043066;28;20197;-71
2022/05/06 04:53:28;;;;;;;8.50;6.60;;;10.20;99.90;11.10;97174.00;;;;5045054;28;20224;-72
2022/05/06 04:55:57;;;;;;;10.53;7.93;;;10.30;99.90;11.50;97174.00;;;;5049060;28;20308;-72
2022/05/06 04:58:25;;;;;;;9.83;7.70;;;10.30;99.90;11.70;97186.00;;;;5052129;28;20219;-72
2022/05/06 05:00:56;;;;;;;10.97;7.43;;;10.40;99.90;11.60;97196.00;;;;5053094;28;20192;-71
2022/05/06 05:03:25;;;;;;;10.00;7.77;;;10.60;99.90;11.50;97183.00;;;;5052305;28;20283;-71
2022/05/06 05:05:53;;;;;;;8.53;7.60;;;10.60;99.90;11.70;97191.00;;;;5046240;28;20208;-71
2022/05/06 05:08:24;;;;;;;7.27;6.57;;;10.70;99.90;11.80;97191.00;;;;5048078;28;20200;-71
2022/05/06 05:10:52;;;;;;;7.03;6.33;;;10.70;99.90;11.80;97194.00;;;;5040333;28;20192;-71
2022/05/06 05:13:21;;;;;;;9.80;6.50;;;10.80;99.90;11.70;97192.00;;;;5048943;28;20197;-71
2022/05/06 05:15:49;;;;;;;13.60;8.50;;;10.80;99.90;11.60;97197.00;;;;5039898;28;20335;-71
2022/05/06 05:18:20;;;;;;;14.27;9.57;;;10.80;99.90;11.40;97207.00;;;;5042245;28;20193;-71
2022/05/06 05:20:49;;;;;;;26.63;17.33;;;10.80;99.90;11.50;97205.00;;;;5045183;28;20230;-71
2022/05/06 05:23:17;;;;;;;24.93;16.57;;;10.80;99.90;11.80;97202.00;;;;5046732;28;20298;-71
2022/05/06 05:25:47;;;;;;;13.80;10.90;;;10.80;99.90;11.80;97200.00;;;;5042274;28;20224;-72
2022/05/06 05:28:16;;;;;;;13.57;11.13;;;10.90;99.90;11.80;97202.00;;;;5048938;28;20197;-71
2022/05/06 05:30:44;;;;;;;11.57;9.70;;;10.90;99.90;11.70;97205.00;;;;5044512;28;20247;-71
2022/05/06 05:33:14;;;;;;;15.83;12.27;;;10.90;99.90;11.80;97211.00;;;;5039258;28;20200;-71
2022/05/06 05:35:43;;;;;;;25.17;20.13;;;10.90;99.90;11.70;97211.00;;;;5049461;28;20224;-71
2022/05/06 05:38:11;;;;;;;11.07;9.20;;;10.90;99.90;11.70;97217.00;;;;5043535;28;20269;-71
2022/05/06 05:40:40;;;;;;;12.97;11.47;;;10.90;99.90;11.80;97209.00;;;;5047944;28;20201;-71
2022/05/06 05:48:19;;;;;;;11.07;9.20;;;11.00;99.90;12.10;97223.00;;;;5040584;28;20201;-71
2022/05/06 05:48:47;;;;;;;11.50;9.60;;;11.10;99.90;12.20;97207.00;;;;5045646;28;20343;-71
2022/05/06 05:51:16;;;;;;;13.77;8.07;;;11.20;99.90;11.90;97222.00;;;;5046938;28;20200;-70
2022/05/06 05:53:44;;;;;;;9.53;6.93;;;11.20;99.90;12.00;97213.00;;;;5041622;28;20208;-70
2022/05/06 05:56:13;;;;;;;8.77;7.97;;;11.20;99.90;12.10;97223.00;;;;5046455;28;20232;-70
2022/05/06 05:58:44;;;;;;;7.70;7.00;;;11.30;99.90;12.20;97220.00;;;;5047019;28;20197;-70
2022/05/06 06:01:14;;;;;;;8.40;7.63;;;11.30;99.90;12.10;97216.00;;;;5036476;28;20595;-70
2022/05/06 06:03:42;;;;;;;14.20;7.67;;;11.30;99.90;12.10;97223.00;;;;5045792;28;20507;-70
2022/05/06 06:06:11;;;;;;;8.53;7.83;;;11.30;99.90;12.20;97218.00;;;;5041654;28;20221;-70
2022/05/06 06:08:40;;;;;;;7.33;6.73;;;11.30;99.90;12.10;97212.00;;;;5041714;28;20196;-70
2022/05/06 06:11:09;;;;;;;19.00;12.20;;;11.30;99.90;12.00;97212.00;;;;5035793;28;20204;-70
2022/05/06 06:13:37;;;;;;;10.60;9.57;;;11.40;99.90;11.90;97220.00;;;;5048221;28;20201;-70
2022/05/06 06:16:07;;;;;;;8.27;7.40;;;11.30;99.90;11.60;97224.00;;;;5046779;28;20228;-70
2022/05/06 06:18:36;;;;;;;11.43;8.37;;;11.30;99.90;11.80;97231.00;;;;5041882;28;20268;-70
2022/05/06 06:21:05;;;;;;;12.10;8.97;;;11.30;99.90;12.00;97233.00;;;;5048807;28;20193;-70
2022/05/06 06:23:34;;;;;;;9.60;7.70;;;11.30;99.90;12.00;97232.00;;;;5051668;28;20220;-70
2022/05/06 06:26:02;;;;;;;9.53;8.27;;;11.30;99.90;12.20;97232.00;;;;5050765;28;20216;-70
2022/05/06 06:28:31;;;;;;;10.77;9.57;;;11.30;99.90;12.40;97239.00;;;;5050464;28;20200;-69
2022/05/06 06:30:59;;;;;;;10.70;8.63;;;11.40;99.90;12.30;97249.00;;;;5050299;28;20189;-70
2022/05/06 06:33:29;;;;;;;11.07;7.83;;;11.40;99.90;12.10;97245.00;;;;5043821;28;20200;-70
2022/05/06 06:35:58;;;;;;;8.60;7.70;;;11.40;99.90;12.20;97248.00;;;;5050204;28;20197;-70
2022/05/06 06:38:28;;;;;;;9.87;8.83;;;11.40;99.90;12.30;97238.00;;;;5037291;28;20201;-70
2022/05/06 06:40:56;;;;;;;10.10;9.10;;;11.50;99.90;12.60;97243.00;;;;5038188;28;20200;-70
2022/05/06 06:43:25;;;;;;;10.47;9.40;;;11.60;99.90;12.60;97229.00;;;;5050736;28;20209;-70
2022/05/06 06:45:54;;;;;;;13.37;10.63;;;11.60;99.90;12.60;97226.00;;;;5051190;28;20216;-70
2022/05/06 06:48:22;;;;;;;9.90;8.80;;;11.70;99.90;12.60;97231.00;;;;5047181;28;20215;-70
2022/05/06 06:50:53;;;;;;;14.93;9.10;;;11.70;99.90;12.40;97234.00;;;;5040928;28;20189;-70
2022/05/06 06:53:21;;;;;;;9.57;8.53;;;11.70;99.90;12.40;97233.00;;;;5043266;28;20287;-70
2022/05/06 06:55:50;;;;;;;12.27;9.17;;;11.70;99.90;12.70;97228.00;;;;5042823;28;20263;-70
2022/05/06 06:58:19;;;;;;;14.40;10.13;;;11.80;99.90;12.70;97232.00;;;;5050757;28;20261;-70
2022/05/06 07:00:47;;;;;;;12.20;10.97;;;11.80;99.90;12.90;97224.00;;;;5050108;28;20192;-70
2022/05/06 07:03:16;;;;;;;10.63;8.47;;;11.90;99.90;13.10;97228.00;;;;5051145;28;20558;-70
2022/05/06 07:14:02;;;;;;;11.20;8.20;;;12.20;99.90;13.00;97226.00;;;;5050676;28;20228;-70
2022/05/06 07:16:31;;;;;;;10.43;8.53;;;12.30;99.90;13.00;97227.00;;;;5050533;28;20262;-70
2022/05/06 07:18:59;;;;;;;13.03;10.50;;;12.30;99.90;13.00;97217.00;;;;5050464;28;20299;-70
2022/05/06 07:21:28;;;;;;;13.33;10.03;;;12.20;99.90;13.20;97224.00;;;;5050575;28;20220;-70
2022/05/06 07:23:58;;;;;;;9.80;8.87;;;12.30;99.90;13.10;97220.00;;;;5042693;28;20241;-70
2022/05/06 07:26:27;;;;;;;10.40;8.53;;;12.30;99.90;13.20;97219.00;;;;5042705;28;20227;-70
2022/05/06 07:28:55;;;;;;;12.63;9.30;;;12.30;99.90;13.50;97220.00;;;;5048151;28;20204;-70
2022/05/06 07:31:24;;;;;;;10.07;9.07;;;12.40;99.90;13.80;97206.00;;;;5050344;28;20279;-70
2022/05/06 07:33:53;;;;;;;11.23;8.97;;;12.50;99.90;14.00;97208.00;;;;5055675;28;20295;-70
2022/05/06 07:36:23;;;;;;;10.80;8.90;;;12.60;99.90;14.10;97209.00;;;;5043050;28;20227;-70
2022/05/06 07:38:52;;;;;;;10.27;9.17;;;12.80;99.90;14.30;97209.00;;;;5047886;28;20212;-70
2022/05/06 07:41:21;;;;;;;10.90;8.43;;;12.90;99.90;14.20;97215.00;;;;5045688;28;20204;-70
2022/05/06 07:43:50;;;;;;;9.77;8.57;;;13.00;99.90;14.10;97215.00;;;;5056842;28;20216;-70
2022/05/06 07:46:19;;;;;;;13.00;9.13;;;13.10;99.90;14.10;97211.00;;;;5049835;28;20219;-70
2022/05/06 07:48:48;;;;;;;9.67;7.47;;;13.10;99.90;14.10;97204.00;;;;5047444;28;20204;-70
2022/05/06 07:51:17;;;;;;;12.33;8.50;;;13.20;99.90;14.30;97203.00;;;;5037546;28;20205;-70
2022/05/06 07:53:45;;;;;;;9.70;8.33;;;13.20;99.90;14.40;97221.00;;;;5046130;28;20206;-70
2022/05/06 07:56:14;;;;;;;9.97;8.73;;;13.30;99.90;14.70;97212.00;;;;5047658;28;20212;-70
2022/05/06 07:58:44;;;;;;;15.97;9.67;;;13.40;99.90;14.70;97207.00;;;;5044175;28;20474;-71
2022/05/06 08:04:37;;;;;;;11.33;8.53;;;13.60;99.90;14.90;97212.00;;;;5044844;28;20229;-70
2022/05/06 08:07:26;;;;;;;13.43;9.13;;;13.60;99.90;14.90;97211.00;;;;5043343;28;20220;-71
2022/05/06 08:10:14;;;;;;;9.80;8.90;;;13.70;99.90;14.90;97210.00;;;;5036194;28;20201;-71
2022/05/06 08:13:03;;;;;;;8.00;7.20;;;13.80;99.90;15.10;97206.00;;;;5044945;28;21015;-71
2022/05/06 08:15:55;;;;;;;8.57;7.67;;;13.80;99.90;15.20;97204.00;;;;5043353;28;20722;-71
2022/05/06 08:18:44;;;;;;;10.03;8.47;;;13.90;99.90;15.40;97211.00;;;;5046257;28;20209;-71
2022/05/06 08:21:32;;;;;;;10.23;8.60;;;14.00;99.90;15.50;97213.00;;;;5047407;28;20295;-71
2022/05/06 08:24:22;;;;;;;9.83;7.60;;;14.20;99.90;15.60;97214.00;;;;5041731;28;20223;-71
2022/05/06 08:27:11;;;;;;;9.03;8.07;;;14.30;99.90;15.70;97218.00;;;;5048571;28;20224;-71
2022/05/06 08:29:59;;;;;;;11.10;8.63;;;14.30;99.90;15.70;97225.00;;;;5049238;28;20196;-71
2022/05/06 08:32:50;;;;;;;11.93;8.57;;;14.40;99.90;15.70;97223.00;;;;5030875;28;20208;-71
2022/05/06 08:35:38;;;;;;;12.73;8.13;;;14.40;99.90;15.60;97225.00;;;;5042157;28;20225;-71
2022/05/06 08:38:27;;;;;;;10.10;8.83;;;14.40;99.90;15.50;97221.00;;;;5045643;28;20223;-71
2022/05/06 08:41:17;;;;;;;10.10;7.80;;;14.40;99.90;15.50;97218.00;;;;5043204;28;20645;-71
2022/05/06 08:53:30;;;;;;;10.10;7.67;;;14.40;99.90;15.60;97209.00;;;;5044219;28;20216;-71
2022/05/06 08:56:19;;;;;;;8.67;7.13;;;14.40;99.90;15.50;97202.00;;;;5033528;28;20225;-71
2022/05/06 08:59:09;;;;;;;8.33;6.60;;;14.40;99.90;15.50;97210.00;;;;5027911;28;20201;-71
2022/05/06 09:01:58;;;;;;;8.07;7.37;;;14.30;99.90;15.50;97211.00;;;;5022758;28;20209;-70
2022/05/06 09:04:46;;;;;;;7.87;6.80;;;14.30;99.90;15.40;97207.00;;;;5026252;28;20225;-71
2022/05/06 09:07:36;;;;;;;9.87;8.13;;;14.30;99.90;15.50;97213.00;;;;5084279;22;20240;-65
2022/05/06 09:10:26;;;;;;;9.37;8.43;;;14.30;99.90;15.60;97214.00;;;;5050186;28;20211;-67
2022/05/06 09:13:14;;;;;;;9.47;8.00;;;14.40;99.90;15.50;97223.00;;;;5055414;28;20204;-67
2022/05/06 09:19:27;;;;;;;7.57;6.57;;;14.40;99.90;15.60;97221.00;;;;5037402;28;20200;-67
2022/05/06 09:22:16;;;;;;;8.20;7.40;;;14.40;99.90;15.70;97224.00;;;;5036100;28;20223;-67
2022/05/06 09:25:07;;;;;;;8.23;7.43;;;14.40;99.90;15.90;97220.00;;;;5036139;28;20623;-67
2022/05/06 09:27:56;;;;;;;7.27;6.57;;;14.60;99.90;16.00;97217.00;;;;5034815;28;20233;-66
2022/05/06 09:31:03;;;;;;;10.23;7.23;;;14.60;99.90;16.10;97225.00;;;;5043309;28;20202;-67
2022/05/06 09:33:51;;;;;;;7.17;6.50;;;14.70;99.90;16.10;97227.00;;;;5038727;28;20620;-67
2022/05/06 09:36:40;;;;;;;8.17;7.23;;;14.80;99.90;16.00;97239.00;;;;5041047;28;20225;-67
2022/05/06 09:39:29;;;;;;;8.10;7.30;;;14.80;99.90;15.80;97241.00;;;;5044014;28;20209;-67
2022/05/06 09:42:25;;;;;;;8.33;7.47;;;14.80;99.90;15.80;97239.00;;;;5046609;28;20279;-67
2022/05/06 09:45:15;;;;;;;8.33;6.33;;;14.70;99.90;15.80;97232.00;;;;5049788;28;20572;-66
2022/05/06 09:48:05;;;;;;;7.67;6.20;;;14.70;99.90;15.80;97234.00;;;;5049791;28;20239;-67
2022/05/06 09:50:55;;;;;;;5.43;5.00;;;14.60;99.90;15.70;97236.00;;;;5046647;28;20212;-67
2022/05/06 09:53:46;;;;;;;8.47;7.07;;;14.70;99.90;15.90;97230.00;;;;5050664;28;20765;-67
2022/05/06 09:56:35;;;;;;;7.50;5.97;;;14.70;99.90;16.00;97228.00;;;;5047817;28;20232;-66
2022/05/06 09:59:27;;;;;;;7.23;6.53;;;14.70;99.90;16.10;97237.00;;;;5038179;28;20579;-67
2022/05/06 10:02:17;;;;;;;9.53;7.43;;;14.80;99.90;16.10;97240.00;;;;5038827;28;20205;-67
2022/05/06 10:05:09;;;;;;;7.23;6.37;;;14.80;99.90;16.10;97237.00;;;;5048953;28;20205;-68
2022/05/06 10:08:03;;;;;;;8.40;6.97;;;14.90;99.90;16.00;97238.00;;;;5040396;28;20233;-67
2022/05/06 10:10:59;;;;;;;8.40;7.20;;;14.90;99.90;16.00;97225.00;;;;5042505;28;20203;-67
2022/05/06 10:13:49;;;;;;;8.77;7.80;;;14.90;99.90;16.00;97228.00;;;;5044434;28;20197;-67
2022/05/06 10:16:42;;;;;;;8.50;7.70;;;14.90;99.90;16.00;97233.00;;;;5039600;28;20221;-67
2022/05/06 10:19:46;;;;;;;8.97;6.07;;;14.90;99.90;15.90;97232.00;;;;5038860;28;20206;-67
2022/05/06 10:22:59;;;;;;;11.90;9.47;;;14.80;99.90;15.90;97230.00;;;;5042734;28;20191;-66
2022/05/06 10:25:54;;;;;;;12.67;9.03;;;14.80;99.90;15.90;97234.00;;;;5035912;28;20205;-66
2022/05/06 10:35:15;;;;;;;12.57;8.43;;;14.70;99.90;15.80;97241.00;;;;5043973;28;20201;-66
2022/05/06 10:38:21;;;;;;;13.40;9.33;;;14.70;99.90;15.80;97224.00;;;;5041356;28;20225;-67
2022/05/06 10:41:24;;;;;;;8.90;7.73;;;14.70;99.90;15.80;97231.00;;;;5031872;28;20205;-65
2022/05/06 10:44:36;;;;;;;11.80;8.40;;;14.70;99.90;15.90;97221.00;;;;5050678;28;20208;-67
2022/05/06 10:47:51;;;;;;;7.37;6.07;;;14.70;99.90;15.90;97227.00;;;;5041430;28;20295;-67
2022/05/06 10:50:40;;;;;;;6.77;5.90;;;14.70;99.90;16.00;97228.00;;;;5034316;28;20201;-66
2022/05/06 10:53:35;;;;;;;6.73;5.53;;;14.70;99.90;15.90;97223.00;;;;5044474;28;20196;-66
2022/05/06 10:56:24;;;;;;;7.60;6.63;;;14.70;99.90;16.00;97213.00;;;;5037803;28;20622;-65
2022/05/06 10:59:17;;;;;;;8.30;6.47;;;14.80;99.90;16.00;97212.00;;;;5037399;28;20217;-66
2022/05/06 11:02:12;;;;;;;6.07;5.50;;;14.80;99.90;16.10;97209.00;;;;5038126;28;20208;-66
2022/05/06 11:05:04;;;;;;;7.83;6.17;;;14.80;99.90;16.10;97208.00;;;;5047283;28;20197;-65
2022/05/06 11:07:59;;;;;;;8.57;7.30;;;14.80;99.90;16.20;97213.00;;;;5041826;28;20216;-66
2022/05/06 11:10:49;;;;;;;5.87;5.27;;;14.90;99.90;16.30;97201.00;;;;5048409;28;20567;-66
2022/05/06 11:13:53;;;;;;;7.67;6.87;;;14.90;99.90;16.60;97201.00;;;;5038416;28;20197;-66
2022/05/06 11:16:42;;;;;;;6.37;5.60;;;15.10;99.90;16.80;97191.00;;;;5041016;28;20393;-66
2022/05/06 11:19:34;;;;;;;7.70;6.13;;;15.30;99.90;16.80;97189.00;;;;5040551;28;20510;-66
2022/05/06 11:22:25;;;;;;;8.07;6.10;;;15.40;99.90;17.10;97184.00;;;;5046338;28;20207;-66
2022/05/06 11:25:16;;;;;;;5.57;5.13;;;15.50;99.90;17.20;97186.00;;;;5040897;28;20205;-66
2022/05/06 11:28:13;;;;;;;5.57;5.07;;;15.70;99.90;17.40;97194.00;;;;5042935;28;20231;-65
2022/05/06 11:31:02;;;;;;;5.50;5.00;;;15.80;99.90;17.60;97190.00;;;;5035923;28;20201;-66
2022/05/06 11:33:57;;;;;;;6.00;4.27;;;15.90;99.90;17.60;97186.00;;;;5039645;28;20211;-66
2022/05/06 11:36:49;;;;;;;7.00;4.60;;;16.10;99.90;17.60;97191.00;;;;5044174;28;20212;-65
2022/05/06 11:39:39;;;;;;;4.43;4.03;;;16.10;99.90;17.50;97193.00;;;;5038831;28;20714;-66
2022/05/06 11:42:27;;;;;;;7.63;4.23;;;16.20;99.90;17.90;97183.00;;;;5038256;28;20192;-65
2022/05/06 11:48:23;;;;;;;6.40;3.87;;;16.40;99.90;18.20;97177.00;;;;5033707;28;20254;-66
2022/05/06 11:51:15;;;;;;;4.73;3.97;;;16.60;99.90;18.40;97180.00;;;;5040819;28;20194;-66
2022/05/06 11:54:06;;;;;;;4.47;4.03;;;16.70;99.90;18.30;97188.00;;;;5039542;28;20219;-66
2022/05/06 11:56:59;;;;;;;5.70;4.10;;;16.80;99.90;18.50;97194.00;;;;5035783;28;20253;-66
2022/05/06 11:59:47;;;;;;;4.20;3.80;;;16.90;99.90;18.50;97195.00;;;;5040725;28;20204;-66
2022/05/06 12:02:36;;;;;;;4.87;3.87;;;17.00;99.90;18.50;97197.00;;;;5032242;28;20680;-66
2022/05/06 12:05:25;;;;;;;5.00;4.37;;;17.00;99.90;18.50;97181.00;;;;5040088;28;20228;-66
2022/05/06 12:08:26;;;;;;;5.17;3.73;;;17.10;99.90;18.30;97188.00;;;;5033125;28;20220;-66
2022/05/06 12:11:25;;;;;;;5.30;4.03;;;17.10;99.90;18.30;97182.00;;;;5045169;28;20211;-66
2022/05/06 12:14:17;;;;;;;4.77;3.80;;;17.00;99.90;17.70;97177.00;;;;5048911;28;20224;-66
2022/05/06 12:17:11;;;;;;;5.37;4.40;;;16.80;99.90;17.60;97178.00;;;;5047924;28;20510;-66
2022/05/06 12:20:00;;;;;;;7.43;5.20;;;16.70;99.90;17.50;97177.00;;;;5047496;28;20672;-66
2022/05/06 12:22:58;;;;;;;5.40;5.00;;;16.50;99.90;17.60;97183.00;;;;5042555;28;20197;-66
2022/05/06 12:25:55;;;;;;;5.63;4.73;;;16.40;99.90;17.40;97181.00;;;;5031967;28;20213;-65
2022/05/06 12:28:49;;;;;;;4.37;3.60;;;16.30;99.90;17.20;97185.00;;;;5034888;28;20516;-66
2022/05/06 12:31:39;;;;;;;4.37;3.73;;;16.20;99.90;17.20;97187.00;;;;5033595;28;20197;-66